Time,TemperatureF,DewpointF,PressureIn,WindDirection,WindDirectionDegrees,WindSpeedMPH,WindSpeedGustMPH,Humidity,HourlyPrecipIn,Conditions,Clouds,dailyrainin,SoftwareType,DateUTC
2013-04-29 00:00:00,55.1,53.7,29.91,North,5,3.0,4.0,95,0.00,,,0.19,Wunderground v.1.15,2013-04-29 04:00:00,
2013-04-29 00:05:00,55.1,53.7,29.91,NNE,30,4.0,4.0,95,0.00,,,0.00,Wunderground v.1.15,2013-04-29 04:05:00,
2013-04-29 00:10:00,55.2,53.8,29.91,NNW,333,3.0,4.0,95,0.00,,,0.00,Wunderground v.1.15,2013-04-29 04:10:00,
2013-04-29 00:15:00,55.2,53.8,29.91,NW,323,3.0,4.0,95,0.00,,,0.00,Wunderground v.1.15,2013-04-29 04:15:00,
2013-04-29 00:20:00,55.1,53.7,29.91,NW,314,4.0,4.0,95,0.00,,,0.00,Wunderground v.1.15,2013-04-29 04:20:00,
2013-04-29 00:25:00,55.1,53.7,29.91,NW,326,4.0,4.0,95,0.00,,,0.00,Wunderground v.1.15,2013-04-29 04:25:00,
2013-04-29 00:30:00,55.1,54.0,29.91,NNW,330,4.0,4.0,96,0.00,,,0.00,Wunderground v.1.15,2013-04-29 04:30:00,
2013-04-29 00:35:00,55.1,54.0,29.91,NNW,330,2.0,4.0,96,0.00,,,0.00,Wunderground v.1.15,2013-04-29 04:35:00,
2013-04-29 00:45:00,55.0,53.9,29.91,NW,304,2.0,2.0,96,0.00,,,0.00,Wunderground v.1.15,2013-04-29 04:45:00,
2013-04-29 00:50:00,55.0,53.9,29.91,NW,321,2.0,3.0,96,0.00,,,0.00,Wunderground v.1.15,2013-04-29 04:50:00,
2013-04-29 00:55:00,55.1,54.0,29.91,North,1,3.0,3.0,96,0.00,,,0.00,Wunderground v.1.15,2013-04-29 04:55:00,
2013-04-29 01:05:00,55.1,54.0,29.91,NNW,334,3.0,3.0,96,0.00,,,0.00,Wunderground v.1.15,2013-04-29 05:05:00,
2013-04-29 01:10:00,55.1,54.0,29.91,NW,307,3.0,3.0,96,0.00,,,0.00,Wunderground v.1.15,2013-04-29 05:10:00,
2013-04-29 01:15:00,55.1,54.0,29.92,NE,52,3.0,3.0,96,0.00,,,0.00,Wunderground v.1.15,2013-04-29 05:15:00,
2013-04-29 01:20:00,55.1,54.0,29.92,ENE,70,2.0,2.0,96,0.00,,,0.00,Wunderground v.1.15,2013-04-29 05:20:00,
2013-04-29 01:25:00,55.1,54.0,29.92,NNE,32,2.0,2.0,96,0.00,,,0.00,Wunderground v.1.15,2013-04-29 05:25:00,
2013-04-29 01:35:00,55.1,54.0,29.92,North,7,2.0,3.0,96,0.00,,,0.00,Wunderground v.1.15,2013-04-29 05:35:00,
2013-04-29 01:40:00,55.1,54.0,29.92,NNE,23,3.0,3.0,96,0.00,,,0.00,Wunderground v.1.15,2013-04-29 05:40:00,
2013-04-29 01:50:00,55.2,54.1,29.92,NE,39,3.0,3.0,96,0.00,,,0.00,Wunderground v.1.15,2013-04-29 05:50:00,
2013-04-29 01:55:00,55.2,54.1,29.92,NE,43,2.0,3.0,96,0.00,,,0.00,Wunderground v.1.15,2013-04-29 05:55:00,
2013-04-29 02:00:00,55.2,54.1,29.92,NE,41,1.0,2.0,96,0.00,,,0.00,Wunderground v.1.15,2013-04-29 06:00:00,
2013-04-29 02:10:00,55.1,54.0,29.92,NE,41,2.0,2.0,96,0.00,,,0.00,Wunderground v.1.15,2013-04-29 06:10:00,
2013-04-29 02:15:00,54.9,53.8,29.92,NE,41,2.0,2.0,96,0.00,,,0.00,Wunderground v.1.15,2013-04-29 06:15:00,
2013-04-29 02:20:00,54.7,53.6,29.92,NE,36,2.0,2.0,96,0.00,,,0.00,Wunderground v.1.15,2013-04-29 06:20:00,
2013-04-29 02:25:00,54.5,53.4,29.92,NE,39,2.0,2.0,96,0.00,,,0.00,Wunderground v.1.15,2013-04-29 06:25:00,
2013-04-29 02:30:00,54.3,53.2,29.91,NE,40,2.0,2.0,96,0.00,,,0.00,Wunderground v.1.15,2013-04-29 06:30:00,
2013-04-29 02:35:00,54.2,53.4,29.91,NE,41,2.0,2.0,97,0.00,,,0.00,Wunderground v.1.15,2013-04-29 06:35:00,
2013-04-29 02:40:00,54.1,53.3,29.91,NE,44,1.0,2.0,97,0.00,,,0.00,Wunderground v.1.15,2013-04-29 06:40:00,
2013-04-29 02:45:00,53.9,53.1,29.91,NE,44,1.0,2.0,97,0.00,,,0.00,Wunderground v.1.15,2013-04-29 06:45:00,
2013-04-29 02:55:00,53.8,53.0,29.91,NE,46,2.0,2.0,97,0.00,,,0.00,Wunderground v.1.15,2013-04-29 06:55:00,
2013-04-29 03:00:00,53.7,52.9,29.91,NNE,29,2.0,2.0,97,0.00,,,0.00,Wunderground v.1.15,2013-04-29 07:00:00,
2013-04-29 03:10:00,53.8,53.0,29.91,NE,56,3.0,4.0,97,0.00,,,0.00,Wunderground v.1.15,2013-04-29 07:10:00,
2013-04-29 03:15:00,53.9,53.3,29.91,NE,39,3.0,4.0,98,0.00,,,0.00,Wunderground v.1.15,2013-04-29 07:15:00,
2013-04-29 03:20:00,53.9,53.3,29.91,NNE,20,3.0,4.0,98,0.00,,,0.00,Wunderground v.1.15,2013-04-29 07:20:00,
2013-04-29 03:25:00,53.8,53.2,29.91,NNW,335,3.0,4.0,98,0.00,,,0.00,Wunderground v.1.15,2013-04-29 07:25:00,
2013-04-29 03:30:00,53.8,53.2,29.91,NE,34,3.0,3.0,98,0.00,,,0.00,Wunderground v.1.15,2013-04-29 07:30:00,
2013-04-29 03:35:00,53.8,53.2,29.91,North,3,3.0,3.0,98,0.00,,,0.00,Wunderground v.1.15,2013-04-29 07:35:00,
2013-04-29 03:45:00,53.6,53.0,29.91,WNW,299,3.0,3.0,98,0.00,,,0.00,Wunderground v.1.15,2013-04-29 07:45:00,
2013-04-29 03:50:00,53.4,52.8,29.91,NNW,328,3.0,4.0,98,0.00,,,0.00,Wunderground v.1.15,2013-04-29 07:50:00,
2013-04-29 03:55:00,53.4,52.8,29.91,NNE,18,4.0,4.0,98,0.00,,,0.00,Wunderground v.1.15,2013-04-29 07:55:00,
2013-04-29 04:00:00,53.4,52.8,29.91,NNW,333,4.0,4.0,98,0.00,,,0.00,Wunderground v.1.15,2013-04-29 08:00:00,
2013-04-29 04:05:00,53.4,52.8,29.92,NW,323,4.0,4.0,98,0.00,,,0.00,Wunderground v.1.15,2013-04-29 08:05:00,
2013-04-29 04:10:00,53.4,52.8,29.92,NW,316,4.0,4.0,98,0.00,,,0.00,Wunderground v.1.15,2013-04-29 08:10:00,
2013-04-29 04:15:00,53.4,52.8,29.92,NW,323,4.0,4.0,98,0.00,,,0.00,Wunderground v.1.15,2013-04-29 08:15:00,
2013-04-29 04:20:00,53.4,52.8,29.92,NW,305,4.0,4.0,98,0.00,,,0.00,Wunderground v.1.15,2013-04-29 08:20:00,
2013-04-29 04:25:00,53.4,52.8,29.92,NW,305,5.0,6.0,98,0.00,,,0.00,Wunderground v.1.15,2013-04-29 08:25:00,
2013-04-29 04:30:00,53.4,52.8,29.92,NW,308,5.0,7.0,98,0.00,,,0.00,Wunderground v.1.15,2013-04-29 08:30:00,
2013-04-29 04:35:00,53.4,52.8,29.92,NW,325,5.0,7.0,98,0.00,,,0.00,Wunderground v.1.15,2013-04-29 08:35:00,
2013-04-29 04:40:00,53.3,52.8,29.92,WNW,303,5.0,5.0,98,0.00,,,0.00,Wunderground v.1.15,2013-04-29 08:40:00,
2013-04-29 04:45:00,53.3,52.8,29.92,NW,311,5.0,6.0,98,0.00,,,0.00,Wunderground v.1.15,2013-04-29 08:45:00,
2013-04-29 04:55:00,53.3,52.8,29.92,NNW,336,5.0,5.0,98,0.00,,,0.00,Wunderground v.1.15,2013-04-29 08:55:00,
2013-04-29 05:00:00,53.3,52.8,29.92,NNW,332,5.0,6.0,98,0.00,,,0.00,Wunderground v.1.15,2013-04-29 09:00:00,
2013-04-29 05:05:00,53.2,52.9,29.92,NNW,333,4.0,6.0,99,0.00,,,0.00,Wunderground v.1.15,2013-04-29 09:05:00,
2013-04-29 05:10:00,53.2,52.9,29.92,NE,52,4.0,4.0,99,0.00,,,0.00,Wunderground v.1.15,2013-04-29 09:10:00,
2013-04-29 05:15:00,53.0,52.5,29.92,WNW,302,3.0,4.0,98,0.00,,,0.00,Wunderground v.1.15,2013-04-29 09:15:00,
2013-04-29 05:20:00,53.0,52.7,29.92,WNW,285,4.0,4.0,99,0.00,,,0.00,Wunderground v.1.15,2013-04-29 09:20:00,
2013-04-29 05:25:00,52.8,52.3,29.92,North,6,4.0,4.0,98,0.00,,,0.00,Wunderground v.1.15,2013-04-29 09:25:00,
2013-04-29 05:35:00,52.6,52.3,29.93,NNE,16,4.0,4.0,99,0.00,,,0.00,Wunderground v.1.15,2013-04-29 09:35:00,
2013-04-29 05:40:00,52.6,52.3,29.93,NW,326,4.0,6.0,99,0.00,,,0.00,Wunderground v.1.15,2013-04-29 09:40:00,
2013-04-29 05:45:00,52.6,52.3,29.93,NNW,347,5.0,9.0,99,0.00,,,0.00,Wunderground v.1.15,2013-04-29 09:45:00,
2013-04-29 05:50:00,52.5,52.2,29.94,NNW,328,6.0,7.0,99,0.00,,,0.00,Wunderground v.1.15,2013-04-29 09:50:00,
2013-04-29 06:00:00,52.5,52.2,29.94,NW,321,5.0,5.0,99,0.00,,,0.00,Wunderground v.1.15,2013-04-29 10:00:00,
2013-04-29 06:10:00,52.5,52.2,29.94,NW,316,6.0,6.0,99,0.00,,,0.00,Wunderground v.1.15,2013-04-29 10:10:00,
2013-04-29 06:15:00,52.5,52.2,29.94,NNW,335,5.0,6.0,99,0.00,,,0.00,Wunderground v.1.15,2013-04-29 10:15:00,
2013-04-29 06:20:00,52.5,52.2,29.95,NNW,328,5.0,5.0,99,0.00,,,0.00,Wunderground v.1.15,2013-04-29 10:20:00,
2013-04-29 06:25:00,52.5,52.2,29.95,NNE,22,6.0,6.0,99,0.00,,,0.00,Wunderground v.1.15,2013-04-29 10:25:00,
2013-04-29 06:30:00,52.5,52.2,29.95,NNW,327,4.0,6.0,99,0.00,,,0.00,Wunderground v.1.15,2013-04-29 10:30:00,
2013-04-29 06:40:00,52.4,52.1,29.95,North,359,5.0,7.0,99,0.00,,,0.00,Wunderground v.1.15,2013-04-29 10:40:00,
2013-04-29 06:45:00,52.3,52.0,29.95,NW,316,6.0,7.0,99,0.00,,,0.00,Wunderground v.1.15,2013-04-29 10:45:00,
2013-04-29 06:50:00,52.3,52.0,29.96,NNE,23,6.0,6.0,99,0.00,,,0.00,Wunderground v.1.15,2013-04-29 10:50:00,
2013-04-29 06:55:00,52.2,51.9,29.96,North,352,5.0,6.0,99,0.00,,,0.00,Wunderground v.1.15,2013-04-29 10:55:00,
2013-04-29 07:05:00,52.2,51.9,29.96,North,8,3.0,9.0,99,0.00,,,0.00,Wunderground v.1.15,2013-04-29 11:05:00,
2013-04-29 07:15:00,52.1,51.8,29.96,NW,313,5.0,5.0,99,0.00,,,0.00,Wunderground v.1.15,2013-04-29 11:15:00,
2013-04-29 07:20:00,52.0,51.7,29.97,NW,316,5.0,5.0,99,0.00,,,0.00,Wunderground v.1.15,2013-04-29 11:20:00,
2013-04-29 07:25:00,52.0,51.7,29.97,NW,304,5.0,6.0,99,0.00,,,0.00,Wunderground v.1.15,2013-04-29 11:25:00,
2013-04-29 07:30:00,52.0,51.7,29.97,NNE,33,6.0,7.0,99,0.00,,,0.00,Wunderground v.1.15,2013-04-29 11:30:00,
2013-04-29 07:35:00,52.0,51.7,29.97,NW,316,6.0,11.0,99,0.00,,,0.00,Wunderground v.1.15,2013-04-29 11:35:00,
2013-04-29 07:40:00,52.0,51.7,29.97,NW,310,6.0,6.0,99,0.00,,,0.00,Wunderground v.1.15,2013-04-29 11:40:00,
2013-04-29 07:50:00,52.1,51.8,29.98,WNW,293,5.0,5.0,99,0.00,,,0.00,Wunderground v.1.15,2013-04-29 11:50:00,
2013-04-29 07:55:00,52.1,51.8,29.98,NE,39,5.0,11.0,99,0.00,,,0.00,Wunderground v.1.15,2013-04-29 11:55:00,
2013-04-29 08:05:00,52.3,52.0,29.98,NW,325,6.0,7.0,99,0.00,,,0.00,Wunderground v.1.15,2013-04-29 12:05:00,
2013-04-29 08:10:00,52.4,52.1,29.98,NNW,329,5.0,5.0,99,0.00,,,0.00,Wunderground v.1.15,2013-04-29 12:10:00,
2013-04-29 08:15:00,52.5,52.2,29.98,NW,311,4.0,7.0,99,0.00,,,0.00,Wunderground v.1.15,2013-04-29 12:15:00,
2013-04-29 08:25:00,52.6,52.3,29.99,North,349,5.0,11.0,99,0.00,,,0.00,Wunderground v.1.15,2013-04-29 12:25:00,
2013-04-29 08:30:00,52.7,52.4,29.98,ENE,75,5.0,5.0,99,0.00,,,0.00,Wunderground v.1.15,2013-04-29 12:30:00,
2013-04-29 08:35:00,52.8,52.5,29.99,NNW,348,5.0,8.0,99,0.00,,,0.00,Wunderground v.1.15,2013-04-29 12:35:00,
2013-04-29 08:40:00,52.9,52.6,29.99,NE,46,5.0,11.0,99,0.00,,,0.00,Wunderground v.1.15,2013-04-29 12:40:00,
2013-04-29 08:45:00,53.2,52.9,29.99,North,356,5.0,11.0,99,0.00,,,0.00,Wunderground v.1.15,2013-04-29 12:45:00,
2013-04-29 08:55:00,53.6,53.3,29.99,NE,47,6.0,11.0,99,0.00,,,0.00,Wunderground v.1.15,2013-04-29 12:55:00,
2013-04-29 09:00:00,53.8,53.5,29.99,NE,56,6.0,11.0,99,0.00,,,0.00,Wunderground v.1.15,2013-04-29 13:00:00,
2013-04-29 09:10:00,54.1,53.8,29.99,North,356,5.0,11.0,99,0.00,,,0.00,Wunderground v.1.15,2013-04-29 13:10:00,
2013-04-29 09:15:00,54.6,54.3,30.00,East,85,5.0,11.0,99,0.00,,,0.00,Wunderground v.1.15,2013-04-29 13:15:00,
2013-04-29 09:20:00,54.6,54.3,30.00,North,358,6.0,11.0,99,0.00,,,0.00,Wunderground v.1.15,2013-04-29 13:20:00,
2013-04-29 09:30:00,54.9,54.6,30.00,North,349,6.0,11.0,99,0.00,,,0.00,Wunderground v.1.15,2013-04-29 13:30:00,
2013-04-29 09:35:00,55.3,54.7,30.00,NNE,18,6.0,11.0,98,0.00,,,0.00,Wunderground v.1.15,2013-04-29 13:35:00,
2013-04-29 09:40:00,55.6,55.0,30.00,SSE,149,7.0,11.0,98,0.00,,,0.00,Wunderground v.1.15,2013-04-29 13:40:00,
2013-04-29 09:45:00,55.9,55.1,29.99,NE,44,8.0,11.0,97,0.00,,,0.00,Wunderground v.1.15,2013-04-29 13:45:00,
2013-04-29 09:50:00,56.4,55.3,29.99,NNE,32,7.0,7.0,96,0.00,,,0.00,Wunderground v.1.15,2013-04-29 13:50:00,
2013-04-29 09:55:00,57.0,55.3,29.99,ENE,69,6.0,11.0,94,0.00,,,0.00,Wunderground v.1.15,2013-04-29 13:55:00,
2013-04-29 10:00:00,57.2,55.2,29.99,NNW,340,7.0,8.0,93,0.00,,,0.00,Wunderground v.1.15,2013-04-29 14:00:00,
2013-04-29 10:10:00,58.3,56.0,29.99,North,8,6.0,6.0,92,0.00,,,0.00,Wunderground v.1.15,2013-04-29 14:10:00,
2013-04-29 10:15:00,59.1,56.2,29.99,NNE,23,5.0,6.0,90,0.00,,,0.00,Wunderground v.1.15,2013-04-29 14:15:00,
2013-04-29 10:20:00,59.7,55.8,29.99,East,88,4.0,4.0,87,0.00,,,0.00,Wunderground v.1.15,2013-04-29 14:20:00,
2013-04-29 10:25:00,60.3,55.4,29.99,NNE,18,5.0,7.0,84,0.00,,,0.00,Wunderground v.1.15,2013-04-29 14:25:00,
2013-04-29 10:30:00,60.5,56.0,29.99,NW,326,5.0,6.0,85,0.00,,,0.00,Wunderground v.1.15,2013-04-29 14:30:00,
2013-04-29 10:40:00,61.0,55.8,29.99,NNE,25,5.0,11.0,83,0.00,,,0.00,Wunderground v.1.15,2013-04-29 14:40:00,
2013-04-29 10:45:00,61.4,56.2,29.99,East,88,5.0,11.0,83,0.00,,,0.00,Wunderground v.1.15,2013-04-29 14:45:00,
2013-04-29 10:50:00,61.8,55.9,29.98,NE,35,4.0,4.0,81,0.00,,,0.00,Wunderground v.1.15,2013-04-29 14:50:00,
2013-04-29 10:55:00,62.0,56.1,29.98,East,89,4.0,11.0,81,0.00,,,0.00,Wunderground v.1.15,2013-04-29 14:55:00,
2013-04-29 11:05:00,62.7,56.4,29.98,ENE,74,5.0,11.0,80,0.00,,,0.00,Wunderground v.1.15,2013-04-29 15:05:00,
2013-04-29 11:15:00,64.0,57.0,29.98,North,351,3.0,11.0,78,0.00,,,0.00,Wunderground v.1.15,2013-04-29 15:15:00,
2013-04-29 11:20:00,64.4,57.0,29.98,NNE,25,3.0,11.0,77,0.00,,,0.00,Wunderground v.1.15,2013-04-29 15:20:00,
2013-04-29 11:25:00,64.6,56.9,29.98,North,8,4.0,11.0,76,0.00,,,0.00,Wunderground v.1.15,2013-04-29 15:25:00,
2013-04-29 11:30:00,64.7,56.2,29.98,ENE,63,4.0,4.0,74,0.00,,,0.00,Wunderground v.1.15,2013-04-29 15:30:00,
2013-04-29 11:35:00,65.1,56.6,29.98,North,352,5.0,5.0,74,0.00,,,0.00,Wunderground v.1.15,2013-04-29 15:35:00,
2013-04-29 11:45:00,64.7,56.2,29.98,North,4,5.0,11.0,74,0.00,,,0.00,Wunderground v.1.15,2013-04-29 15:45:00,
2013-04-29 11:50:00,65.0,56.1,29.98,NW,319,5.0,11.0,73,0.00,,,0.00,Wunderground v.1.15,2013-04-29 15:50:00,
2013-04-29 11:55:00,65.1,55.8,29.98,NNE,30,6.0,11.0,72,0.00,,,0.00,Wunderground v.1.15,2013-04-29 15:55:00,
2013-04-29 12:00:00,65.3,55.3,29.98,North,11,7.0,7.0,70,0.00,,,0.00,Wunderground v.1.15,2013-04-29 16:00:00,
2013-04-29 12:10:00,64.6,55.4,29.98,WNW,302,7.0,7.0,72,0.00,,,0.00,Wunderground v.1.15,2013-04-29 16:10:00,
2013-04-29 12:20:00,64.7,55.8,29.98,West,280,7.0,7.0,73,0.00,,,0.00,Wunderground v.1.15,2013-04-29 16:20:00,
2013-04-29 12:25:00,65.1,56.2,29.98,WNW,301,7.0,7.0,73,0.00,,,0.00,Wunderground v.1.15,2013-04-29 16:25:00,
2013-04-29 12:30:00,65.3,54.5,29.98,WNW,291,8.0,8.0,68,0.00,,,0.00,Wunderground v.1.15,2013-04-29 16:30:00,
2013-04-29 12:35:00,65.3,55.3,29.98,ESE,109,8.0,9.0,70,0.00,,,0.00,Wunderground v.1.15,2013-04-29 16:35:00,
2013-04-29 12:40:00,65.4,55.4,29.98,NW,304,8.0,8.0,70,0.00,,,0.00,Wunderground v.1.15,2013-04-29 16:40:00,
2013-04-29 12:45:00,65.3,55.7,29.98,NW,319,7.0,10.0,71,0.00,,,0.00,Wunderground v.1.15,2013-04-29 16:45:00,
2013-04-29 12:55:00,64.9,53.3,29.97,NW,304,9.0,12.0,66,0.00,,,0.00,Wunderground v.1.15,2013-04-29 16:55:00,
2013-04-29 13:00:00,65.0,53.4,29.97,NW,304,10.0,10.0,66,0.00,,,0.00,Wunderground v.1.15,2013-04-29 17:00:00,
2013-04-29 13:10:00,65.8,53.7,29.97,East,79,8.0,10.0,65,0.00,,,0.00,Wunderground v.1.15,2013-04-29 17:10:00,
2013-04-29 13:15:00,66.0,53.0,29.97,NW,308,9.0,12.0,63,0.00,,,0.00,Wunderground v.1.15,2013-04-29 17:15:00,
2013-04-29 13:20:00,65.6,52.7,29.96,WNW,294,10.0,10.0,63,0.00,,,0.00,Wunderground v.1.15,2013-04-29 17:20:00,
2013-04-29 13:30:00,65.6,53.9,29.96,WNW,289,9.0,9.0,66,0.00,,,0.00,Wunderground v.1.15,2013-04-29 17:30:00,
2013-04-29 13:35:00,66.1,53.1,29.96,West,264,9.0,10.0,63,0.00,,,0.00,Wunderground v.1.15,2013-04-29 17:35:00,
2013-04-29 13:40:00,66.0,52.6,29.96,WNW,288,7.0,10.0,62,0.00,,,0.00,Wunderground v.1.15,2013-04-29 17:40:00,
2013-04-29 13:45:00,66.1,53.1,29.96,West,281,9.0,10.0,63,0.00,,,0.00,Wunderground v.1.15,2013-04-29 17:45:00,
2013-04-29 13:50:00,66.2,54.1,29.96,WNW,295,9.0,9.0,65,0.00,,,0.00,Wunderground v.1.15,2013-04-29 17:50:00,
2013-04-29 14:00:00,65.9,53.4,29.96,WNW,287,10.0,10.0,64,0.00,,,0.00,Wunderground v.1.15,2013-04-29 18:00:00,
2013-04-29 14:10:00,65.6,53.1,29.96,West,262,8.0,9.0,64,0.00,,,0.00,Wunderground v.1.15,2013-04-29 18:10:00,
2013-04-29 14:15:00,65.7,53.6,29.96,West,280,7.0,9.0,65,0.00,,,0.00,Wunderground v.1.15,2013-04-29 18:15:00,
2013-04-29 14:20:00,65.9,54.2,29.96,NW,308,8.0,9.0,66,0.00,,,0.00,Wunderground v.1.15,2013-04-29 18:20:00,
2013-04-29 14:25:00,65.9,52.9,29.96,WNW,302,7.0,9.0,63,0.00,,,0.00,Wunderground v.1.15,2013-04-29 18:25:00,
2013-04-29 14:35:00,66.3,52.0,29.96,WNW,294,8.0,16.0,60,0.00,,,0.00,Wunderground v.1.15,2013-04-29 18:35:00,
2013-04-29 14:40:00,66.8,52.9,29.95,WNW,285,8.0,16.0,61,0.00,,,0.00,Wunderground v.1.15,2013-04-29 18:40:00,
2013-04-29 14:45:00,66.9,52.6,29.95,West,259,8.0,16.0,60,0.00,,,0.00,Wunderground v.1.15,2013-04-29 18:45:00,
2013-04-29 14:50:00,66.4,53.4,29.96,WNW,288,9.0,9.0,63,0.00,,,0.00,Wunderground v.1.15,2013-04-29 18:50:00,
2013-04-29 14:55:00,66.2,51.9,29.95,WNW,288,8.0,16.0,60,0.00,,,0.00,Wunderground v.1.15,2013-04-29 18:55:00,
2013-04-29 15:05:00,66.4,53.4,29.95,WNW,302,8.0,16.0,63,0.00,,,0.00,Wunderground v.1.15,2013-04-29 19:05:00,
2013-04-29 15:15:00,66.6,52.3,29.95,West,261,9.0,16.0,60,0.00,,,0.00,Wunderground v.1.15,2013-04-29 19:15:00,
2013-04-29 15:20:00,66.5,52.2,29.95,WSW,252,10.0,10.0,60,0.00,,,0.00,Wunderground v.1.15,2013-04-29 19:20:00,
2013-04-29 15:25:00,66.5,52.2,29.94,West,259,9.0,16.0,60,0.00,,,0.00,Wunderground v.1.15,2013-04-29 19:25:00,
2013-04-29 15:30:00,66.6,52.7,29.94,West,277,8.0,8.0,61,0.00,,,0.00,Wunderground v.1.15,2013-04-29 19:30:00,
2013-04-29 15:35:00,66.8,52.5,29.94,WNW,283,8.0,16.0,60,0.00,,,0.00,Wunderground v.1.15,2013-04-29 19:35:00,
2013-04-29 15:45:00,66.9,51.6,29.94,West,271,10.0,16.0,58,0.00,,,0.00,Wunderground v.1.15,2013-04-29 19:45:00,
2013-04-29 15:50:00,66.9,52.6,29.94,WSW,246,10.0,10.0,60,0.00,,,0.00,Wunderground v.1.15,2013-04-29 19:50:00,
2013-04-29 15:55:00,66.9,51.6,29.94,West,278,9.0,16.0,58,0.00,,,0.00,Wunderground v.1.15,2013-04-29 19:55:00,
2013-04-29 16:00:00,66.8,52.5,29.94,WSW,249,8.0,8.0,60,0.00,,,0.00,Wunderground v.1.15,2013-04-29 20:00:00,
2013-04-29 16:10:00,67.0,52.7,29.93,WSW,242,10.0,12.0,60,0.00,,,0.00,Wunderground v.1.15,2013-04-29 20:10:00,
2013-04-29 16:20:00,67.0,53.5,29.93,West,259,10.0,10.0,62,0.00,,,0.00,Wunderground v.1.15,2013-04-29 20:20:00,
2013-04-29 16:25:00,67.1,54.1,29.93,West,274,9.0,10.0,63,0.00,,,0.00,Wunderground v.1.15,2013-04-29 20:25:00,
2013-04-29 16:30:00,67.3,52.9,29.93,West,274,9.0,10.0,60,0.00,,,0.00,Wunderground v.1.15,2013-04-29 20:30:00,
2013-04-29 16:35:00,67.6,54.1,29.93,WSW,256,9.0,16.0,62,0.00,,,0.00,Wunderground v.1.15,2013-04-29 20:35:00,
2013-04-29 16:40:00,68.2,54.2,29.93,WSW,239,9.0,16.0,61,0.00,,,0.00,Wunderground v.1.15,2013-04-29 20:40:00,
2013-04-29 16:50:00,67.6,53.2,29.92,WNW,291,11.0,11.0,60,0.00,,,0.00,Wunderground v.1.15,2013-04-29 20:50:00,
2013-04-29 16:55:00,68.1,53.7,29.92,WNW,285,10.0,16.0,60,0.00,,,0.00,Wunderground v.1.15,2013-04-29 20:55:00,
2013-04-29 17:00:00,67.7,53.3,29.93,West,273,9.0,16.0,60,0.00,,,0.00,Wunderground v.1.15,2013-04-29 21:00:00,
2013-04-29 17:10:00,67.3,52.9,29.92,West,263,10.0,16.0,60,0.00,,,0.00,Wunderground v.1.15,2013-04-29 21:10:00,
2013-04-29 17:15:00,67.1,52.7,29.92,West,263,10.0,16.0,60,0.00,,,0.00,Wunderground v.1.15,2013-04-29 21:15:00,
2013-04-29 17:25:00,67.2,53.3,29.92,West,259,9.0,9.0,61,0.00,,,0.00,Wunderground v.1.15,2013-04-29 21:25:00,
2013-04-29 17:30:00,67.1,53.6,29.92,WSW,256,10.0,16.0,62,0.00,,,0.00,Wunderground v.1.15,2013-04-29 21:30:00,
2013-04-29 17:35:00,67.1,53.6,29.92,WNW,282,11.0,16.0,62,0.00,,,0.00,Wunderground v.1.15,2013-04-29 21:35:00,
2013-04-29 17:40:00,66.8,52.9,29.92,WSW,255,12.0,16.0,61,0.00,,,0.00,Wunderground v.1.15,2013-04-29 21:40:00,
2013-04-29 17:45:00,66.7,52.8,29.92,WSW,243,13.0,16.0,61,0.00,,,0.00,Wunderground v.1.15,2013-04-29 21:45:00,
2013-04-29 17:50:00,66.8,53.8,29.92,West,271,12.0,12.0,63,0.00,,,0.00,Wunderground v.1.15,2013-04-29 21:50:00,
2013-04-29 18:00:00,66.9,52.6,29.93,West,271,9.0,10.0,60,0.00,,,0.00,Wunderground v.1.15,2013-04-29 22:00:00,
2013-04-29 18:10:00,67.0,52.7,29.92,WSW,250,10.0,14.0,60,0.00,,,0.00,Wunderground v.1.15,2013-04-29 22:10:00,
2013-04-29 18:15:00,67.1,52.7,29.92,West,266,12.0,14.0,60,0.00,,,0.00,Wunderground v.1.15,2013-04-29 22:15:00,
2013-04-29 18:20:00,66.7,52.8,29.92,WSW,256,11.0,11.0,61,0.00,,,0.00,Wunderground v.1.15,2013-04-29 22:20:00,
2013-04-29 18:25:00,66.7,52.8,29.92,WSW,255,11.0,11.0,61,0.00,,,0.00,Wunderground v.1.15,2013-04-29 22:25:00,
2013-04-29 18:35:00,67.1,54.1,29.92,West,262,11.0,16.0,63,0.00,,,0.00,Wunderground v.1.15,2013-04-29 22:35:00,
2013-04-29 18:40:00,67.1,53.2,29.92,WSW,254,12.0,16.0,61,0.00,,,0.00,Wunderground v.1.15,2013-04-29 22:40:00,
2013-04-29 18:45:00,67.2,53.3,29.92,WSW,248,13.0,16.0,61,0.00,,,0.00,Wunderground v.1.15,2013-04-29 22:45:00,
2013-04-29 18:50:00,67.2,53.7,29.92,SW,233,13.0,16.0,62,0.00,,,0.00,Wunderground v.1.15,2013-04-29 22:50:00,
2013-04-29 18:55:00,67.1,53.2,29.92,WSW,242,14.0,16.0,61,0.00,,,0.00,Wunderground v.1.15,2013-04-29 22:55:00,
2013-04-29 19:05:00,67.0,52.7,29.92,WSW,248,11.0,16.0,60,0.00,,,0.00,Wunderground v.1.15,2013-04-29 23:05:00,
2013-04-29 19:15:00,66.7,53.3,29.92,West,274,8.0,16.0,62,0.00,,,0.00,Wunderground v.1.15,2013-04-29 23:15:00,
2013-04-29 19:20:00,66.5,53.5,29.92,WNW,283,7.0,16.0,63,0.00,,,0.00,Wunderground v.1.15,2013-04-29 23:20:00,
2013-04-29 19:25:00,66.5,53.5,29.92,West,274,7.0,16.0,63,0.00,,,0.00,Wunderground v.1.15,2013-04-29 23:25:00,
2013-04-29 19:30:00,66.5,53.9,29.92,West,280,7.0,16.0,64,0.00,,,0.00,Wunderground v.1.15,2013-04-29 23:30:00,
2013-04-29 19:40:00,66.2,54.1,29.92,WSW,252,9.0,16.0,65,0.00,,,0.00,Wunderground v.1.15,2013-04-29 23:40:00,
2013-04-29 19:45:00,65.9,54.2,29.92,WSW,248,10.0,16.0,66,0.00,,,0.00,Wunderground v.1.15,2013-04-29 23:45:00,
2013-04-29 19:50:00,65.7,54.0,29.92,West,265,10.0,16.0,66,0.00,,,0.00,Wunderground v.1.15,2013-04-29 23:50:00,
2013-04-29 19:55:00,65.6,53.9,29.92,WSW,243,10.0,16.0,66,0.00,,,0.00,Wunderground v.1.15,2013-04-29 23:55:00,
2013-04-29 20:00:00,65.4,53.7,29.92,WSW,248,11.0,13.0,66,0.00,,,0.00,Wunderground v.1.15,2013-04-30 00:00:00,
2013-04-29 20:10:00,65.1,54.3,29.92,WSW,244,10.0,10.0,68,0.00,,,0.00,Wunderground v.1.15,2013-04-30 00:10:00,
2013-04-29 20:15:00,64.9,54.1,29.92,WSW,246,8.0,10.0,68,0.00,,,0.00,Wunderground v.1.15,2013-04-30 00:15:00,
2013-04-29 20:20:00,64.8,54.0,29.92,WSW,245,9.0,11.0,68,0.00,,,0.00,Wunderground v.1.15,2013-04-30 00:20:00,
2013-04-29 20:25:00,64.7,54.3,29.92,WSW,245,10.0,11.0,69,0.00,,,0.00,Wunderground v.1.15,2013-04-30 00:25:00,
2013-04-29 20:30:00,64.6,54.2,29.91,West,265,10.0,10.0,69,0.00,,,0.00,Wunderground v.1.15,2013-04-30 00:30:00,
2013-04-29 20:35:00,64.4,54.0,29.91,WSW,241,9.0,15.0,69,0.00,,,0.00,Wunderground v.1.15,2013-04-30 00:35:00,
2013-04-29 20:40:00,64.2,54.2,29.92,WSW,245,8.0,8.0,70,0.00,,,0.00,Wunderground v.1.15,2013-04-30 00:40:00,
2013-04-29 20:50:00,63.8,53.8,29.92,WSW,248,6.0,15.0,70,0.00,,,0.00,Wunderground v.1.15,2013-04-30 00:50:00,
2013-04-29 20:55:00,63.8,53.8,29.92,WSW,248,7.0,15.0,70,0.00,,,0.00,Wunderground v.1.15,2013-04-30 00:55:00,
2013-04-29 21:00:00,63.6,54.0,29.93,WSW,245,7.0,15.0,71,0.00,,,0.00,Wunderground v.1.15,2013-04-30 01:00:00,
2013-04-29 21:10:00,63.3,53.7,29.93,WSW,248,7.0,7.0,71,0.00,,,0.00,Wunderground v.1.15,2013-04-30 01:10:00,
2013-04-29 21:15:00,63.2,53.6,29.93,WSW,257,8.0,8.0,71,0.00,,,0.00,Wunderground v.1.15,2013-04-30 01:15:00,
2013-04-29 21:25:00,63.0,53.8,29.93,WSW,248,9.0,15.0,72,0.00,,,0.00,Wunderground v.1.15,2013-04-30 01:25:00,
2013-04-29 21:30:00,62.9,53.7,29.93,West,261,9.0,15.0,72,0.00,,,0.00,Wunderground v.1.15,2013-04-30 01:30:00,
2013-04-29 21:35:00,62.8,54.0,29.93,West,259,9.0,15.0,73,0.00,,,0.00,Wunderground v.1.15,2013-04-30 01:35:00,
2013-04-29 21:40:00,62.6,54.2,29.94,WSW,254,8.0,15.0,74,0.00,,,0.00,Wunderground v.1.15,2013-04-30 01:40:00,
2013-04-29 21:45:00,62.5,54.1,29.93,WSW,240,8.0,15.0,74,0.00,,,0.00,Wunderground v.1.15,2013-04-30 01:45:00,
2013-04-29 21:55:00,61.9,54.2,29.94,WSW,255,8.0,15.0,76,0.00,,,0.00,Wunderground v.1.15,2013-04-30 01:55:00,
2013-04-29 22:00:00,61.8,54.2,29.94,West,259,8.0,8.0,76,0.00,,,0.00,Wunderground v.1.15,2013-04-30 02:00:00,
2013-04-29 22:10:00,61.7,53.7,29.94,WSW,250,9.0,11.0,75,0.00,,,0.00,Wunderground v.1.15,2013-04-30 02:10:00,
2013-04-29 22:15:00,61.6,53.6,29.94,West,259,9.0,11.0,75,0.00,,,0.00,Wunderground v.1.15,2013-04-30 02:15:00,
2013-04-29 22:20:00,61.6,53.6,29.94,WSW,246,9.0,11.0,75,0.00,,,0.00,Wunderground v.1.15,2013-04-30 02:20:00,
2013-04-29 22:30:00,61.4,53.4,29.94,WSW,256,10.0,11.0,75,0.00,,,0.00,Wunderground v.1.15,2013-04-30 02:30:00,
2013-04-29 22:35:00,61.3,53.3,29.94,WSW,248,10.0,13.0,75,0.00,,,0.00,Wunderground v.1.15,2013-04-30 02:35:00,
2013-04-29 22:40:00,61.2,53.2,29.94,WSW,253,9.0,9.0,75,0.00,,,0.00,Wunderground v.1.15,2013-04-30 02:40:00,
2013-04-29 22:45:00,61.1,53.1,29.94,WSW,248,8.0,11.0,75,0.00,,,0.00,Wunderground v.1.15,2013-04-30 02:45:00,
2013-04-29 22:50:00,61.1,53.5,29.94,WSW,246,8.0,13.0,76,0.00,,,0.00,Wunderground v.1.15,2013-04-30 02:50:00,
2013-04-29 22:55:00,60.9,53.3,29.94,WSW,246,8.0,13.0,76,0.00,,,0.00,Wunderground v.1.15,2013-04-30 02:55:00,
2013-04-29 23:05:00,60.7,53.4,29.93,WSW,246,8.0,13.0,77,0.00,,,0.00,Wunderground v.1.15,2013-04-30 03:05:00,
2013-04-29 23:15:00,60.5,53.3,29.93,WSW,243,9.0,13.0,77,0.00,,,0.00,Wunderground v.1.15,2013-04-30 03:15:00,
2013-04-29 23:20:00,60.4,53.5,29.93,WSW,243,10.0,13.0,78,0.00,,,0.00,Wunderground v.1.15,2013-04-30 03:20:00,
2013-04-29 23:25:00,60.2,53.3,29.93,WSW,254,10.0,13.0,78,0.00,,,0.00,Wunderground v.1.15,2013-04-30 03:25:00,
2013-04-29 23:30:00,60.1,53.2,29.93,WSW,248,10.0,13.0,78,0.00,,,0.00,Wunderground v.1.15,2013-04-30 03:30:00,
2013-04-29 23:40:00,59.9,53.0,29.93,West,259,11.0,11.0,78,0.00,,,0.00,Wunderground v.1.15,2013-04-30 03:40:00,
2013-04-29 23:45:00,59.9,53.0,29.93,WSW,242,10.0,12.0,78,0.00,,,0.00,Wunderground v.1.15,2013-04-30 03:45:00,
2013-04-29 23:50:00,59.9,53.0,29.93,WSW,243,10.0,10.0,78,0.00,,,0.00,Wunderground v.1.15,2013-04-30 03:50:00,
2013-04-29 23:55:00,59.9,53.0,29.93,WSW,257,11.0,13.0,78,0.00,,,0.00,Wunderground v.1.15,2013-04-30 03:55:00,